Time;durP1;ratioP1;P1;durP2;ratioP2;P2;SDS_P1;SDS_P2;PMS_P1;PMS_P2;Temp;Humidity;BMP_temperature;BMP_pressure;BME280_temperature;BME280_humidity;BME280_pressure;Samples;Min_cycle;Max_cycle;Signal;HPM_P1;HPM_P2
2023/02/03 00:02:39;;;;;;;3.20;2.17;;;3.70;99.90;;;;;;6223416;23;20032;-86
2023/02/03 00:05:28;;;;;;;2.97;1.88;;;3.70;1.00;;;;;;6225338;23;20020;-88
2023/02/03 00:08:17;;;;;;;2.85;1.65;;;3.70;99.90;;;;;;6245971;23;20058;-87
2023/02/03 00:11:06;;;;;;;4.63;1.80;;;3.70;1.00;;;;;;6245539;23;20024;-86
2023/02/03 00:13:53;;;;;;;3.50;1.90;;;3.60;1.00;;;;;;6246761;23;20437;-86
2023/02/03 00:16:41;;;;;;;1.90;1.70;;;3.60;71.30;;;;;;6224547;23;20028;-86
2023/02/03 00:19:31;;;;;;;2.40;1.77;;;3.60;99.90;;;;;;6246973;23;20047;-87
2023/02/03 00:22:18;;;;;;;2.63;1.75;;;3.60;99.90;;;;;;6247748;23;20032;-88
2023/02/03 00:25:06;;;;;;;4.63;2.05;;;3.60;99.90;;;;;;6247188;23;20035;-86
2023/02/03 00:27:53;;;;;;;1.95;1.83;;;3.60;99.90;;;;;;6246232;23;20020;-88
2023/02/03 00:30:40;;;;;;;3.88;2.00;;;3.60;1.00;;;;;;6246187;23;20035;-89
2023/02/03 00:33:32;;;;;;;3.53;1.70;;;3.60;1.00;;;;;;6245553;23;20103;-86
2023/02/03 00:36:19;;;;;;;1.80;1.70;;;3.60;1.00;;;;;;6227244;23;20439;-84
2023/02/03 00:39:06;;;;;;;3.22;2.00;;;3.60;1.00;;;;;;6226399;23;20031;-86
2023/02/03 00:41:54;;;;;;;3.00;2.00;;;3.60;1.00;;;;;;6246828;23;20107;-85
2023/02/03 00:44:41;;;;;;;2.45;2.25;;;3.60;1.00;;;;;;6225841;23;20419;-86
2023/02/03 00:47:29;;;;;;;2.60;2.13;;;3.60;1.00;;;;;;6245859;23;20172;-85
2023/02/03 00:50:16;;;;;;;1.60;1.50;;;3.60;1.00;;;;;;6246478;23;20035;-85
2023/02/03 00:53:03;;;;;;;2.75;1.70;;;3.60;1.00;;;;;;6223901;23;20078;-87
2023/02/03 00:55:51;;;;;;;5.13;1.73;;;3.60;1.00;;;;;;6248453;23;20481;-85
2023/02/03 00:58:43;;;;;;;2.42;1.90;;;3.60;1.00;;;;;;6245325;23;20024;-88
2023/02/03 01:01:32;;;;;;;1.90;1.67;;;3.60;1.00;;;;;;6246456;23;20102;-86
2023/02/03 01:04:20;;;;;;;3.47;2.13;;;3.60;1.00;;;;;;6245136;23;20024;-84
2023/02/03 01:07:09;;;;;;;2.20;1.60;;;3.60;1.00;;;;;;6246813;23;20357;-87
2023/02/03 01:09:56;;;;;;;3.35;2.10;;;3.60;1.00;;;;;;6226999;23;20020;-87
2023/02/03 01:12:46;;;;;;;2.35;1.90;;;3.60;1.00;;;;;;6233986;23;20047;-86
2023/02/03 01:15:33;;;;;;;2.35;1.85;;;3.60;1.00;;;;;;6238221;23;20035;-87
2023/02/03 01:18:20;;;;;;;2.97;2.28;;;3.60;1.00;;;;;;6260374;23;20035;-87
2023/02/03 01:21:28;;;;;;;2.40;2.20;;;3.60;1.00;;;;;;6263349;23;20024;-86
2023/02/03 01:24:16;;;;;;;2.40;2.20;;;3.60;1.00;;;;;;6159996;22;20025;-84
2023/02/03 01:27:05;;;;;;;5.28;2.17;;;3.60;1.00;;;;;;6179386;23;20020;-86
2023/02/03 01:29:52;;;;;;;2.85;2.10;;;3.60;1.00;;;;;;6167229;23;20104;-87
2023/02/03 01:32:39;;;;;;;5.32;2.33;;;3.60;1.00;;;;;;6145714;23;20607;-87
2023/02/03 01:35:26;;;;;;;8.38;2.75;;;3.70;1.00;;;;;;6188252;23;20025;-85
2023/02/03 01:38:14;;;;;;;2.45;2.25;;;3.70;1.00;;;;;;6191799;23;20060;-87
2023/02/03 01:41:03;;;;;;;5.45;2.65;;;3.70;1.00;;;;;;6165390;23;20060;-87
2023/02/03 01:43:53;;;;;;;4.32;2.42;;;3.70;1.00;;;;;;6186292;23;20088;-89
2023/02/03 01:46:47;;;;;;;5.32;2.72;;;3.70;1.00;;;;;;6190490;23;20425;-90
2023/02/03 01:49:36;;;;;;;6.45;3.03;;;3.70;1.00;;;;;;6166431;23;20104;-88
2023/02/03 01:52:23;;;;;;;3.25;2.60;;;3.70;1.00;;;;;;6186948;23;20044;-87
2023/02/03 01:55:17;;;;;;;4.97;2.85;;;3.60;5.50;;;;;;6185544;23;20437;-86
2023/02/03 01:58:19;;;;;;;3.83;2.70;;;3.70;30.40;;;;;;6168060;23;20416;-87
2023/02/03 02:01:11;;;;;;;4.07;2.63;;;3.70;40.70;;;;;;6185982;23;20037;-88
2023/02/03 02:04:01;;;;;;;6.50;2.80;;;3.70;35.10;;;;;;6188908;23;20033;-87
2023/02/03 02:06:52;;;;;;;3.03;2.67;;;3.70;24.80;;;;;;6187282;23;20025;-87
2023/02/03 02:09:39;;;;;;;4.70;2.42;;;3.70;53.60;;;;;;6187727;23;20096;-87
2023/02/03 02:12:27;;;;;;;5.88;2.78;;;3.80;45.60;;;;;;6166426;23;20025;-87
2023/02/03 02:15:23;;;;;;;3.17;2.63;;;3.90;1.00;;;;;;6167457;23;20112;-89
2023/02/03 02:18:20;;;;;;;3.33;2.50;;;4.00;1.00;;;;;;6167338;23;20033;-87
2023/02/03 02:21:13;;;;;;;3.60;2.33;;;4.00;1.00;;;;;;6169005;23;20025;-86
2023/02/03 02:24:24;;;;;;;6.40;2.80;;;4.00;1.00;;;;;;6189537;23;20385;-86
2023/02/03 02:27:29;;;;;;;3.22;2.38;;;4.00;1.00;;;;;;6196271;23;20056;-86
2023/02/03 02:30:35;;;;;;;3.03;2.58;;;4.00;99.90;;;;;;6201271;23;20025;-85
2023/02/03 02:33:35;;;;;;;4.95;2.63;;;3.90;99.90;;;;;;6180752;23;20025;-86
2023/02/03 02:36:57;;;;;;;5.35;2.88;;;3.90;1.00;;;;;;6204203;23;20029;-88
2023/02/03 02:39:54;;;;;;;3.20;2.90;;;3.80;1.00;;;;;;6127253;23;20036;-86
2023/02/03 02:42:55;;;;;;;6.90;2.90;;;3.80;1.00;;;;;;6203259;23;20072;-86
2023/02/03 02:45:49;;;;;;;3.67;2.53;;;3.80;1.00;;;;;;6201104;23;20017;-87
2023/02/03 02:49:00;;;;;;;3.65;2.58;;;3.80;1.00;;;;;;6212113;23;20013;-84
2023/02/03 02:51:49;;;;;;;4.70;2.97;;;3.80;1.00;;;;;;6211729;23;20009;-84
2023/02/03 02:54:45;;;;;;;4.57;2.60;;;3.80;2.40;;;;;;6211217;23;20019;-86
2023/02/03 02:57:35;;;;;;;6.45;2.60;;;3.80;41.00;;;;;;6209567;23;20040;-85
2023/02/03 03:00:28;;;;;;;4.03;2.60;;;3.80;79.90;;;;;;6183875;23;20013;-84
2023/02/03 03:03:18;;;;;;;4.40;2.60;;;3.80;80.20;;;;;;6182328;23;20029;-86
2023/02/03 03:06:12;;;;;;;10.88;2.60;;;3.80;98.50;;;;;;6182930;23;20028;-84
2023/02/03 03:09:07;;;;;;;5.40;2.58;;;3.80;99.90;;;;;;6180928;23;20032;-85
2023/02/03 03:12:05;;;;;;;3.75;2.60;;;3.80;99.90;;;;;;6204842;23;20029;-85
2023/02/03 03:14:59;;;;;;;6.32;3.10;;;3.80;99.90;;;;;;6201074;23;20029;-86
2023/02/03 03:17:59;;;;;;;4.43;2.60;;;3.80;99.90;;;;;;6196198;23;20029;-84
2023/02/03 03:20:50;;;;;;;2.67;2.33;;;3.80;99.90;;;;;;6194794;23;20025;-86
2023/02/03 03:23:41;;;;;;;3.85;2.47;;;3.80;99.90;;;;;;6194497;23;20362;-85
2023/02/03 03:26:40;;;;;;;5.45;2.83;;;3.80;99.90;;;;;;6225436;23;20024;-86
2023/02/03 03:29:39;;;;;;;8.85;2.80;;;3.80;99.90;;;;;;6223780;23;20082;-86
2023/02/03 03:32:31;;;;;;;3.40;2.83;;;3.80;99.90;;;;;;6223884;23;20050;-86
2023/02/03 03:35:24;;;;;;;3.25;2.90;;;3.80;99.90;;;;;;6219124;23;20136;-85
2023/02/03 03:38:41;;;;;;;4.38;2.45;;;3.70;99.90;;;;;;6217134;23;20039;-86
2023/02/03 03:41:39;;;;;;;6.03;2.50;;;3.70;99.90;;;;;;6216097;23;20028;-86
2023/02/03 03:44:34;;;;;;;5.30;3.05;;;3.70;99.90;;;;;;6215667;23;20028;-85
2023/02/03 03:47:34;;;;;;;4.93;2.58;;;3.70;99.90;;;;;;6215878;23;20128;-86
2023/02/03 03:50:27;;;;;;;5.40;1.85;;;3.80;99.90;;;;;;6215412;23;20031;-85
2023/02/03 03:53:17;;;;;;;4.93;2.35;;;3.80;99.90;;;;;;6215011;23;20024;-85
2023/02/03 03:56:12;;;;;;;3.28;2.17;;;3.80;99.90;;;;;;6215219;23;20036;-86
2023/02/03 03:59:06;;;;;;;4.38;1.80;;;3.80;99.90;;;;;;6216601;23;20040;-85
2023/02/03 04:01:56;;;;;;;1.70;1.60;;;3.80;99.90;;;;;;6217522;23;20039;-85
2023/02/03 04:04:46;;;;;;;2.72;2.10;;;3.80;99.90;;;;;;6216796;23;20717;-85
2023/02/03 04:07:44;;;;;;;3.38;2.10;;;3.70;99.90;;;;;;6217354;23;20021;-85
2023/02/03 04:10:37;;;;;;;2.13;1.92;;;3.80;99.90;;;;;;6215412;23;20387;-85
2023/02/03 04:13:29;;;;;;;1.92;1.83;;;3.80;99.90;;;;;;6214589;23;20043;-87
2023/02/03 04:16:16;;;;;;;3.97;2.42;;;3.80;99.90;;;;;;6213020;23;20048;-85
2023/02/03 04:19:04;;;;;;;2.10;1.90;;;3.80;99.90;;;;;;6214391;23;20028;-85
2023/02/03 04:21:54;;;;;;;2.40;2.20;;;3.70;99.90;;;;;;6217454;23;20024;-86
2023/02/03 04:24:41;;;;;;;2.08;1.83;;;3.70;99.90;;;;;;6217025;23;20436;-86
2023/02/03 04:27:31;;;;;;;3.15;2.13;;;3.70;99.90;;;;;;6214019;23;20028;-86
2023/02/03 04:30:18;;;;;;;3.60;2.38;;;3.70;99.90;;;;;;6214682;23;20028;-87
2023/02/03 04:33:05;;;;;;;6.38;2.40;;;3.70;99.90;;;;;;6213483;23;20420;-85
2023/02/03 04:35:55;;;;;;;3.08;2.28;;;3.60;99.90;;;;;;6216622;23;20042;-86
2023/02/03 04:38:42;;;;;;;3.60;2.30;;;3.60;99.90;;;;;;6216171;23;20060;-86
2023/02/03 04:41:32;;;;;;;4.30;2.20;;;3.60;99.90;;;;;;6216634;23;20090;-85
2023/02/03 04:44:20;;;;;;;2.53;2.03;;;3.60;99.90;;;;;;6216177;23;20048;-87
2023/02/03 04:47:07;;;;;;;2.92;2.13;;;3.70;99.90;;;;;;6216107;23;20030;-86
2023/02/03 04:49:57;;;;;;;2.95;2.25;;;3.60;99.90;;;;;;6214734;23;20024;-85
2023/02/03 04:52:44;;;;;;;3.38;1.80;;;3.60;99.90;;;;;;6214694;23;20029;-85
2023/02/03 04:55:31;;;;;;;3.80;2.10;;;3.70;99.90;;;;;;6216267;23;20082;-86
2023/02/03 04:58:18;;;;;;;1.98;1.70;;;3.60;99.90;;;;;;6216262;23;20032;-87
2023/02/03 05:01:12;;;;;;;2.35;1.80;;;3.60;99.90;;;;;;6213761;23;20464;-86
2023/02/03 05:04:35;;;;;;;2.97;2.35;;;3.60;99.90;;;;;;6214210;23;20029;-85
2023/02/03 05:07:41;;;;;;;1.83;1.60;;;3.60;99.90;;;;;;6215940;23;20017;-87
2023/02/03 05:10:29;;;;;;;2.70;1.70;;;3.70;99.90;;;;;;6213624;23;20029;-85
2023/02/03 05:13:16;;;;;;;5.47;1.90;;;3.70;99.90;;;;;;6214995;23;20340;-85
2023/02/03 05:16:04;;;;;;;2.45;2.15;;;3.70;99.90;;;;;;6213857;23;20352;-85
2023/02/03 05:18:54;;;;;;;4.05;2.42;;;3.60;99.90;;;;;;6195852;23;20106;-86
2023/02/03 05:21:41;;;;;;;5.30;2.40;;;3.70;99.90;;;;;;6215471;23;20035;-85
2023/02/03 05:24:28;;;;;;;2.88;2.17;;;3.70;99.90;;;;;;6213627;23;20111;-85
2023/02/03 05:27:15;;;;;;;3.92;2.53;;;3.70;99.90;;;;;;6215817;23;20020;-86
2023/02/03 05:30:03;;;;;;;1.92;1.75;;;3.70;99.90;;;;;;6212907;23;20025;-85
2023/02/03 05:32:54;;;;;;;3.25;1.98;;;3.70;99.90;;;;;;6215984;23;20439;-85
2023/02/03 05:35:41;;;;;;;2.67;1.98;;;3.70;99.90;;;;;;6219361;23;20178;-88
2023/02/03 05:38:30;;;;;;;10.45;2.55;;;3.70;99.90;;;;;;6220060;23;20032;-89
2023/02/03 05:44:27;;;;;;;2.40;2.20;;;3.70;99.90;;;;;;6216866;23;20029;-88
2023/02/03 05:47:20;;;;;;;2.67;2.22;;;3.70;99.90;;;;;;6219753;23;20020;-89
2023/02/03 05:50:07;;;;;;;2.50;2.30;;;3.80;99.90;;;;;;6217795;23;20555;-87
2023/02/03 05:52:54;;;;;;;3.17;2.40;;;3.80;99.90;;;;;;6218198;23;20021;-87
2023/02/03 05:55:42;;;;;;;5.72;2.75;;;3.80;99.90;;;;;;6218700;23;20025;-87
2023/02/03 05:58:29;;;;;;;2.80;2.00;;;3.80;99.90;;;;;;6218083;23;20083;-85
2023/02/03 06:01:22;;;;;;;3.08;2.40;;;3.70;99.90;;;;;;6218045;23;20031;-84
2023/02/03 06:04:11;;;;;;;7.32;2.60;;;3.70;99.90;;;;;;6218754;23;20040;-84
2023/02/03 06:06:59;;;;;;;3.35;2.50;;;3.70;99.90;;;;;;6214667;23;20020;-86
2023/02/03 06:09:46;;;;;;;5.63;2.70;;;3.70;99.90;;;;;;6217618;23;20028;-86
2023/02/03 06:12:38;;;;;;;5.30;2.88;;;3.70;99.90;;;;;;6217828;23;20063;-87
2023/02/03 06:15:27;;;;;;;5.05;2.53;;;3.70;99.90;;;;;;6217820;23;20078;-85
2023/02/03 06:18:14;;;;;;;6.15;2.45;;;3.80;99.90;;;;;;6216566;23;20467;-86
2023/02/03 06:21:03;;;;;;;2.92;2.20;;;3.80;99.90;;;;;;6215500;23;20021;-83
2023/02/03 06:23:54;;;;;;;2.30;2.10;;;3.80;99.90;;;;;;6217605;23;20025;-85
2023/02/03 06:26:41;;;;;;;2.92;2.03;;;3.70;99.90;;;;;;6215628;23;20031;-84
2023/02/03 06:29:29;;;;;;;4.05;1.90;;;3.80;99.90;;;;;;6217408;23;20079;-83
2023/02/03 06:32:16;;;;;;;4.85;2.00;;;3.80;99.90;;;;;;6217887;23;20025;-84
2023/02/03 06:35:06;;;;;;;3.13;1.92;;;3.80;99.90;;;;;;6216365;23;20048;-85
2023/02/03 06:37:53;;;;;;;4.35;1.90;;;3.80;99.90;;;;;;6216959;23;20088;-83
2023/02/03 06:40:51;;;;;;;3.97;2.25;;;3.80;99.90;;;;;;6216256;23;20083;-83
2023/02/03 06:43:40;;;;;;;2.72;1.83;;;3.80;99.90;;;;;;6214023;23;20416;-84
2023/02/03 06:46:31;;;;;;;6.18;1.80;;;3.70;99.90;;;;;;6218966;23;20731;-87
2023/02/03 06:49:20;;;;;;;12.60;3.05;;;3.70;99.90;;;;;;6211147;23;20056;-86
2023/02/03 06:52:08;;;;;;;1.70;1.55;;;3.70;99.90;;;;;;6216439;23;20060;-86
2023/02/03 06:54:57;;;;;;;2.45;1.65;;;3.70;93.70;;;;;;6211450;23;20107;-85
2023/02/03 06:57:46;;;;;;;2.85;2.00;;;3.70;61.80;;;;;;6215699;23;20024;-84
2023/02/03 07:00:34;;;;;;;1.88;1.75;;;3.70;1.00;;;;;;6211405;23;20024;-86
2023/02/03 07:03:21;;;;;;;5.40;1.92;;;3.70;1.00;;;;;;6215834;23;20029;-84
2023/02/03 07:06:17;;;;;;;4.88;2.00;;;3.60;2.90;;;;;;6210750;23;20029;-84
2023/02/03 07:09:10;;;;;;;4.70;2.20;;;3.60;41.80;;;;;;6212470;23;20024;-83
2023/02/03 07:12:26;;;;;;;5.25;2.40;;;3.60;99.90;;;;;;6219448;23;20051;-81
2023/02/03 07:15:24;;;;;;;3.70;2.42;;;3.50;99.90;;;;;;6218835;23;20087;-82
2023/02/03 07:18:23;;;;;;;6.97;3.00;;;3.50;99.90;;;;;;6220921;23;20411;-82
2023/02/03 07:21:25;;;;;;;4.75;3.22;;;3.50;99.90;;;;;;6219807;23;20066;-84
2023/02/03 07:24:18;;;;;;;4.35;2.63;;;3.50;99.90;;;;;;6226612;23;20017;-83
2023/02/03 07:27:23;;;;;;;6.28;2.97;;;3.50;99.90;;;;;;6223031;23;20080;-82
2023/02/03 07:30:14;;;;;;;6.88;3.47;;;3.50;99.90;;;;;;6218241;23;20021;-85
2023/02/03 07:33:10;;;;;;;5.88;3.95;;;3.50;99.90;;;;;;6216079;23;20024;-84
2023/02/03 14:29:42;;;;;;;4.13;1.05;;;5.80;99.90;;;;;;6196829;23;20056;-83
2023/02/03 14:33:02;;;;;;;3.25;1.40;;;5.80;99.90;;;;;;6169086;23;20052;-85
2023/02/03 14:35:53;;;;;;;1.38;1.20;;;5.90;99.90;;;;;;6188926;23;20021;-84
2023/02/03 14:38:41;;;;;;;2.03;1.30;;;5.90;99.90;;;;;;6190880;23;20080;-87
2023/02/03 14:41:44;;;;;;;3.55;1.48;;;5.90;99.90;;;;;;6186887;23;20017;-84
2023/02/03 14:44:58;;;;;;;2.28;1.80;;;5.90;99.90;;;;;;6168422;23;20091;-83
2023/02/03 14:48:24;;;;;;;2.60;1.48;;;5.80;99.90;;;;;;6186857;23;20018;-86
2023/02/03 14:51:29;;;;;;;1.42;1.33;;;5.80;99.90;;;;;;6184770;23;20442;-84
2023/02/03 14:54:45;;;;;;;1.95;1.67;;;5.80;99.90;;;;;;6164676;23;20084;-85
2023/02/03 14:57:55;;;;;;;2.45;1.33;;;5.80;99.90;;;;;;6187180;23;20032;-87
2023/02/03 15:00:51;;;;;;;2.28;1.20;;;5.80;1.00;;;;;;6166434;23;20029;-84
2023/02/03 15:04:25;;;;;;;1.30;1.10;;;5.70;1.00;;;;;;6187689;23;20483;-85
2023/02/03 15:07:36;;;;;;;2.42;1.67;;;5.70;1.00;;;;;;6061648;23;20025;-85
2023/02/03 15:10:51;;;;;;;2.15;1.30;;;5.60;1.00;;;;;;6163474;23;20039;-87
2023/02/03 15:13:41;;;;;;;1.38;1.27;;;5.60;69.50;;;;;;6165723;23;20285;-84
2023/02/03 15:16:33;;;;;;;1.65;1.45;;;5.50;99.90;;;;;;6164171;23;20111;-86
2023/02/03 15:19:23;;;;;;;2.00;1.58;;;5.50;99.90;;;;;;6186345;23;20025;-85
2023/02/03 15:22:28;;;;;;;1.38;1.30;;;5.50;99.90;;;;;;6186992;23;20025;-86
2023/02/03 15:25:31;;;;;;;2.47;1.40;;;5.40;5.00;;;;;;6186442;23;20087;-86
2023/02/03 15:28:23;;;;;;;1.73;1.60;;;5.40;99.90;;;;;;6187230;23;20103;-87
2023/02/03 15:31:32;;;;;;;1.35;1.25;;;5.30;99.90;;;;;;6186946;23;20025;-86
2023/02/03 15:34:49;;;;;;;2.38;1.40;;;5.30;15.80;;;;;;6165703;23;20049;-87
2023/02/03 15:38:03;;;;;;;2.85;1.73;;;5.40;99.90;;;;;;6139545;23;20087;-86
2023/02/03 15:40:57;;;;;;;1.90;1.48;;;5.40;99.90;;;;;;6163901;23;20017;-87
2023/02/03 15:43:48;;;;;;;2.33;1.60;;;5.40;99.90;;;;;;6185714;23;20405;-89
2023/02/03 15:47:08;;;;;;;2.22;1.48;;;5.40;99.90;;;;;;6182122;23;20285;-85
2023/02/03 15:50:23;;;;;;;4.22;1.10;;;5.50;99.90;;;;;;6164809;23;20305;-86
2023/02/03 15:53:19;;;;;;;1.48;1.38;;;5.50;17.40;;;;;;6139264;23;20025;-84
2023/02/03 15:56:06;;;;;;;1.83;1.15;;;5.50;1.00;;;;;;6164415;23;20029;-85
2023/02/03 15:58:54;;;;;;;1.20;1.10;;;5.50;1.00;;;;;;6185956;23;20033;-87
2023/02/03 16:01:41;;;;;;;1.15;1.08;;;5.50;1.00;;;;;;6187973;23;20442;-87
2023/02/03 16:04:30;;;;;;;2.92;1.23;;;5.50;1.00;;;;;;6181029;23;20056;-81
2023/02/03 16:07:24;;;;;;;1.35;1.25;;;5.40;1.00;;;;;;6186498;23;20356;-82
2023/02/03 16:10:30;;;;;;;2.17;1.42;;;5.40;1.00;;;;;;6184646;23;20331;-82
2023/02/03 16:13:25;;;;;;;1.25;1.13;;;5.40;99.90;;;;;;6185659;23;20044;-83
2023/02/03 16:16:42;;;;;;;2.33;1.35;;;5.30;99.90;;;;;;6165199;23;20032;-83
2023/02/03 16:19:50;;;;;;;1.80;1.67;;;5.30;1.00;;;;;;6197202;23;20029;-79
2023/02/03 16:22:45;;;;;;;2.10;1.35;;;5.20;1.00;;;;;;6190445;23;20029;-80
2023/02/03 16:25:34;;;;;;;3.33;1.70;;;5.20;1.00;;;;;;6187514;23;20103;-79
2023/02/03 16:53:35;;;;;;;2.33;1.92;;;5.00;99.90;;;;;;6183053;23;20453;-81
2023/02/03 16:56:25;;;;;;;2.83;1.92;;;5.00;99.90;;;;;;6161960;23;20037;-81
2023/02/03 16:59:12;;;;;;;3.92;2.35;;;5.00;99.90;;;;;;6183154;23;20111;-80
2023/02/03 17:02:00;;;;;;;2.03;1.60;;;5.00;99.90;;;;;;6181846;23;20025;-82
2023/02/03 17:04:48;;;;;;;2.33;1.30;;;5.00;99.90;;;;;;6189778;23;20036;-83
2023/02/03 17:07:35;;;;;;;2.22;2.00;;;5.10;99.90;;;;;;6193696;23;20029;-82
2023/02/03 17:10:25;;;;;;;2.83;2.13;;;5.10;99.90;;;;;;6187940;23;20025;-80
2023/02/03 17:13:14;;;;;;;3.30;2.35;;;5.00;99.90;;;;;;6187555;23;20021;-79
2023/02/03 17:16:08;;;;;;;3.97;2.15;;;5.10;99.90;;;;;;6186680;23;20025;-80
2023/02/03 17:18:55;;;;;;;4.22;1.88;;;5.10;99.90;;;;;;6183202;23;20040;-81
2023/02/03 17:21:43;;;;;;;1.05;1.05;;;5.10;99.90;;;;;;6160591;23;20466;-80
2023/02/03 17:24:30;;;;;;;2.92;1.73;;;5.10;99.90;;;;;;6182456;23;20081;-80
2023/02/03 17:27:18;;;;;;;2.47;1.55;;;5.10;99.90;;;;;;6181975;23;20036;-80
2023/02/03 17:30:10;;;;;;;2.38;1.83;;;5.20;99.90;;;;;;6213294;23;20341;-80
2023/02/03 17:32:57;;;;;;;2.10;1.60;;;5.10;99.90;;;;;;6215960;23;20025;-82
2023/02/03 17:35:45;;;;;;;3.15;1.80;;;5.10;99.90;;;;;;6194459;23;20028;-81
2023/02/03 17:38:37;;;;;;;4.30;2.17;;;5.10;99.90;;;;;;6193745;23;20029;-82
2023/02/03 17:41:43;;;;;;;2.50;1.98;;;5.10;99.90;;;;;;6216869;23;20024;-82
2023/02/03 17:44:48;;;;;;;2.50;2.10;;;5.10;99.90;;;;;;6197558;23;20017;-82
2023/02/03 17:47:54;;;;;;;3.88;1.83;;;5.00;99.90;;;;;;6214971;23;20407;-81
2023/02/03 17:51:09;;;;;;;3.67;2.30;;;5.00;99.90;;;;;;6198246;23;20306;-80
2023/02/03 17:54:18;;;;;;;5.00;2.60;;;5.00;99.90;;;;;;6218624;23;20085;-80
2023/02/03 17:57:06;;;;;;;2.10;1.90;;;5.00;99.90;;;;;;6216719;23;20091;-81
2023/02/03 17:59:58;;;;;;;3.28;2.28;;;5.00;99.90;;;;;;6216282;23;20064;-80
2023/02/03 18:02:49;;;;;;;3.22;1.85;;;5.00;99.90;;;;;;6214015;23;20028;-81
2023/02/03 18:05:48;;;;;;;7.80;2.60;;;5.00;99.90;;;;;;6215408;23;20102;-80
2023/02/03 18:08:49;;;;;;;3.42;2.10;;;5.00;99.90;;;;;;6178642;23;20028;-81
2023/02/03 18:11:37;;;;;;;3.55;2.60;;;5.00;99.90;;;;;;6194167;23;20087;-79
2023/02/03 18:14:25;;;;;;;4.57;3.15;;;5.00;99.90;;;;;;6194476;23;20024;-81
2023/02/03 18:17:14;;;;;;;7.53;4.97;;;5.00;99.90;;;;;;6192565;23;20039;-84
2023/02/03 18:20:02;;;;;;;8.18;3.83;;;5.00;99.90;;;;;;6216840;23;20025;-81
2023/02/03 18:22:50;;;;;;;8.70;4.00;;;5.00;99.90;;;;;;6213427;23;20031;-82
2023/02/03 18:25:39;;;;;;;4.15;2.78;;;5.00;99.90;;;;;;6214901;23;20311;-83
2023/02/03 18:28:27;;;;;;;6.60;3.22;;;5.00;99.90;;;;;;6205918;23;20106;-81
2023/02/03 18:31:18;;;;;;;4.47;2.80;;;5.00;99.90;;;;;;6184404;23;20021;-81
2023/02/03 18:34:07;;;;;;;5.88;3.70;;;5.00;99.90;;;;;;6163204;23;20029;-82
2023/02/03 18:36:55;;;;;;;3.05;2.60;;;5.00;99.90;;;;;;6183430;23;20385;-81
2023/02/03 18:39:42;;;;;;;3.85;3.00;;;5.00;99.90;;;;;;6181207;23;20081;-82
2023/02/03 18:42:33;;;;;;;3.92;2.78;;;5.10;99.90;;;;;;6190633;23;20039;-83
2023/02/03 18:45:23;;;;;;;3.22;2.60;;;5.10;99.90;;;;;;6184282;23;20069;-82
2023/02/03 18:48:10;;;;;;;3.95;2.60;;;5.10;99.90;;;;;;6183514;23;20032;-81
2023/02/03 18:50:58;;;;;;;2.45;2.17;;;5.10;99.90;;;;;;6162955;23;20017;-82
2023/02/03 18:53:48;;;;;;;4.07;2.75;;;5.10;99.90;;;;;;6185614;23;20313;-83
2023/02/03 18:56:36;;;;;;;4.20;3.08;;;5.10;99.90;;;;;;6183445;23;20092;-80
2023/02/03 18:59:24;;;;;;;3.67;3.00;;;5.10;99.90;;;;;;6183895;23;20033;-80
2023/02/03 19:02:12;;;;;;;2.72;2.47;;;5.10;99.90;;;;;;6183456;23;20095;-81
2023/02/03 19:04:59;;;;;;;2.95;2.50;;;5.10;99.90;;;;;;6183965;23;20044;-82
2023/02/03 19:07:47;;;;;;;3.67;2.78;;;5.10;99.90;;;;;;6182140;23;20103;-81
2023/02/03 19:10:35;;;;;;;2.97;2.28;;;5.10;99.90;;;;;;6161929;23;20042;-82
2023/02/03 19:13:22;;;;;;;2.50;2.30;;;5.10;99.90;;;;;;6190707;23;20029;-82
2023/02/03 19:16:13;;;;;;;3.05;1.88;;;5.10;99.90;;;;;;6164709;23;20112;-82
2023/02/03 19:19:01;;;;;;;2.35;2.15;;;5.10;99.90;;;;;;6183202;23;20025;-81
2023/02/03 19:21:48;;;;;;;3.38;2.40;;;5.10;99.90;;;;;;6184241;23;20128;-83
2023/02/03 19:24:36;;;;;;;5.10;3.22;;;5.10;99.90;;;;;;6183737;23;20040;-81
2023/02/03 19:27:24;;;;;;;2.67;2.47;;;5.10;99.90;;;;;;6160867;23;20218;-82
2023/02/03 19:30:12;;;;;;;4.75;2.67;;;5.10;99.90;;;;;;6182791;23;20408;-81
2023/02/03 19:33:06;;;;;;;3.75;2.67;;;5.10;99.90;;;;;;6183107;23;20045;-81
2023/02/03 19:35:54;;;;;;;2.85;2.58;;;5.10;99.90;;;;;;6184054;23;20056;-81
2023/02/03 19:38:41;;;;;;;3.58;2.75;;;5.10;99.90;;;;;;6182953;23;20029;-82
2023/02/03 19:41:40;;;;;;;2.50;2.30;;;5.20;99.90;;;;;;6182925;23;20055;-81
2023/02/03 19:44:28;;;;;;;3.40;2.13;;;5.10;99.90;;;;;;6182788;23;20313;-80
2023/02/03 19:47:16;;;;;;;3.05;2.55;;;5.20;99.90;;;;;;6184431;23;20021;-82
2023/02/03 19:50:03;;;;;;;2.50;2.30;;;5.20;99.90;;;;;;6182926;23;20337;-82
2023/02/03 19:52:51;;;;;;;2.67;2.47;;;5.10;99.90;;;;;;6183466;23;20021;-81
2023/02/03 19:55:38;;;;;;;4.18;3.30;;;5.20;99.90;;;;;;6186672;23;20021;-82
2023/02/03 19:58:29;;;;;;;3.92;3.10;;;5.10;99.90;;;;;;6186506;23;20049;-83
2023/02/03 20:01:17;;;;;;;7.05;4.18;;;5.20;99.90;;;;;;6196838;23;20100;-80
2023/02/03 20:04:06;;;;;;;3.33;2.70;;;5.10;99.90;;;;;;6185806;23;20044;-83
2023/02/03 20:06:56;;;;;;;5.47;3.72;;;5.10;99.90;;;;;;6183412;23;20043;-82
2023/02/03 20:09:43;;;;;;;4.65;3.70;;;5.10;99.90;;;;;;6185699;23;20036;-83
2023/02/03 20:12:31;;;;;;;5.03;3.70;;;5.10;99.90;;;;;;6185833;23;20400;-82
2023/02/03 20:15:21;;;;;;;6.45;4.50;;;5.10;99.90;;;;;;6185332;23;20029;-82
2023/02/03 20:18:09;;;;;;;7.25;4.60;;;5.10;99.90;;;;;;6184497;23;20057;-82
2023/02/03 20:20:59;;;;;;;3.08;2.88;;;5.10;99.90;;;;;;6184914;23;20344;-81
2023/02/03 20:23:46;;;;;;;2.95;2.60;;;5.10;99.90;;;;;;6184432;23;20404;-81
2023/02/03 20:26:34;;;;;;;3.85;2.80;;;5.10;99.90;;;;;;6187794;23;20420;-83
2023/02/03 20:29:21;;;;;;;3.85;3.17;;;5.10;99.90;;;;;;6184108;23;20043;-83
2023/02/03 20:32:11;;;;;;;5.55;3.80;;;5.10;99.90;;;;;;6160610;23;20408;-81
2023/02/03 20:34:59;;;;;;;4.20;3.60;;;5.10;99.90;;;;;;6183332;23;20021;-80
2023/02/03 20:37:46;;;;;;;3.55;3.17;;;5.10;99.90;;;;;;6162558;23;20322;-83
2023/02/03 20:40:36;;;;;;;4.90;3.45;;;5.10;99.90;;;;;;6181579;23;20037;-81
2023/02/03 20:43:27;;;;;;;3.80;3.15;;;5.10;99.90;;;;;;6182615;23;20033;-83
2023/02/03 20:46:17;;;;;;;4.45;3.13;;;5.10;99.90;;;;;;6180991;23;20029;-81
2023/02/03 20:49:14;;;;;;;7.82;3.90;;;5.10;99.90;;;;;;6172137;23;20021;-81
2023/02/03 20:52:13;;;;;;;4.15;3.10;;;5.10;99.90;;;;;;6162467;23;20033;-81
2023/02/03 20:55:01;;;;;;;5.53;3.45;;;5.10;99.90;;;;;;6161812;23;20409;-80
2023/02/03 20:57:50;;;;;;;3.47;2.58;;;5.10;99.90;;;;;;6162384;23;20033;-82
2023/02/03 21:00:39;;;;;;;3.55;2.83;;;5.10;99.90;;;;;;6161669;23;20128;-81
2023/02/03 21:06:34;;;;;;;2.58;2.38;;;5.10;99.90;;;;;;6182782;23;20028;-82
2023/02/03 21:09:26;;;;;;;4.88;3.45;;;5.20;99.90;;;;;;6181280;23;20060;-82
2023/02/03 21:12:13;;;;;;;6.57;3.73;;;5.20;99.90;;;;;;6183147;23;20043;-82
2023/02/03 21:15:01;;;;;;;3.20;2.45;;;5.20;99.90;;;;;;6182723;23;20104;-82
2023/02/03 21:17:49;;;;;;;3.60;2.80;;;5.20;99.90;;;;;;6161844;23;20036;-80
2023/02/03 21:20:36;;;;;;;2.42;2.05;;;5.20;99.90;;;;;;6181452;23;20025;-80
2023/02/03 21:23:31;;;;;;;3.63;2.92;;;5.20;99.90;;;;;;6183535;23;20424;-83
2023/02/03 21:26:26;;;;;;;5.43;2.47;;;5.20;99.90;;;;;;6183414;23;20024;-82
2023/02/03 21:29:26;;;;;;;4.05;2.67;;;5.20;99.90;;;;;;6161443;23;20455;-79
2023/02/03 21:32:13;;;;;;;2.58;2.03;;;5.20;99.90;;;;;;6161984;23;20093;-81
2023/02/03 21:35:00;;;;;;;3.85;2.97;;;5.30;99.90;;;;;;6184360;23;20021;-82
2023/02/03 21:37:48;;;;;;;6.15;3.45;;;5.20;99.90;;;;;;6187319;23;20055;-81
2023/02/03 21:40:35;;;;;;;8.35;5.70;;;5.20;99.90;;;;;;6183738;23;20036;-83
2023/02/03 21:43:23;;;;;;;2.55;2.28;;;5.30;99.90;;;;;;6182299;23;20040;-82
2023/02/03 21:46:28;;;;;;;4.35;2.58;;;5.30;99.90;;;;;;6182236;23;20029;-82
2023/02/03 21:49:18;;;;;;;2.42;2.10;;;5.30;99.90;;;;;;6182673;23;20351;-80
2023/02/03 21:52:13;;;;;;;2.55;1.92;;;5.40;99.90;;;;;;6161211;23;20029;-81
2023/02/03 21:55:03;;;;;;;2.80;2.50;;;5.40;99.90;;;;;;6182022;23;20025;-81
2023/02/03 21:57:53;;;;;;;4.90;2.47;;;5.50;99.90;;;;;;6161644;23;20025;-80
2023/02/03 22:00:47;;;;;;;3.40;2.95;;;5.50;99.90;;;;;;6182123;23;20048;-79
2023/02/03 22:03:45;;;;;;;4.53;3.83;;;5.50;99.90;;;;;;6178732;23;20029;-83
2023/02/03 22:06:48;;;;;;;4.85;4.00;;;5.60;99.90;;;;;;6161305;23;20028;-85
2023/02/03 22:09:35;;;;;;;5.20;3.83;;;5.70;99.90;;;;;;6183119;23;20277;-85
2023/02/03 22:12:22;;;;;;;4.78;4.22;;;5.80;99.90;;;;;;6182584;23;20035;-80
2023/02/03 22:15:12;;;;;;;6.93;4.55;;;5.80;99.90;;;;;;6164122;23;20405;-82
2023/02/03 22:17:59;;;;;;;4.88;4.38;;;5.80;99.90;;;;;;6163383;23;20059;-84
2023/02/03 22:20:48;;;;;;;5.78;5.03;;;5.90;99.90;;;;;;6184020;23;20108;-82
2023/02/03 22:23:38;;;;;;;6.88;4.57;;;5.90;99.90;;;;;;6168287;23;20103;-82
2023/02/03 22:26:28;;;;;;;4.95;4.45;;;5.90;99.90;;;;;;6186086;23;20025;-83
2023/02/03 22:29:15;;;;;;;7.00;5.10;;;5.90;99.90;;;;;;6184032;23;20028;-82
2023/02/03 22:32:02;;;;;;;7.53;5.20;;;6.00;99.90;;;;;;6183256;23;20040;-83
2023/02/03 22:34:58;;;;;;;7.93;5.40;;;6.00;99.90;;;;;;6164382;23;20040;-83
2023/02/03 22:37:49;;;;;;;8.15;5.50;;;6.00;99.90;;;;;;6163354;23;20021;-84
2023/02/03 22:40:38;;;;;;;7.28;5.72;;;6.00;99.90;;;;;;6185168;23;20321;-83